Terminal Aerodrome Forecast
Issued by NWS

Home | Current Version | Previous Version | Graphics & Text | Print | Product List | Glossary Off
Versions: 1 2 3 4 5 6 7 8 9 10 11 12 13 14 15 16 17 18 19 20 21 22

000
FTUS41 KCLE 220500
TAFFDY
TAF
KFDY 220539Z 2206/2306 VRB03KT P6SM SKC
      TEMPO 2210/2213 5SM BR
     FM221500 22010KT P6SM SCT050
     FM222300 22006KT P6SM BKN250=

USA.gov is the U.S. government's official web portal to all federal, state and local government web resources and services.